createdAt,value
2023-11-20T00:03:29.059Z,0.70
2023-11-20T00:08:30.830Z,0.90
2023-11-20T00:13:32.397Z,0.90
2023-11-20T00:18:34.062Z,0.60
2023-11-20T00:23:36.142Z,0.80
2023-11-20T00:28:37.804Z,0.77
2023-11-20T00:33:42.285Z,0.90
2023-11-20T00:38:43.954Z,0.80
2023-11-20T00:43:47.190Z,0.90
2023-11-20T00:48:48.915Z,0.83
2023-11-20T00:53:50.511Z,1.00
2023-11-20T00:58:52.222Z,1.10
2023-11-20T01:03:54.020Z,0.70
2023-11-20T01:08:55.736Z,0.90
2023-11-20T01:13:57.346Z,0.90
2023-11-20T01:18:59.006Z,0.80
2023-11-20T01:24:00.693Z,0.60
2023-11-20T01:29:02.514Z,0.80
2023-11-20T01:34:04.189Z,0.47
2023-11-20T01:39:05.959Z,0.80
2023-11-20T01:44:07.558Z,0.70
2023-11-20T01:49:09.801Z,0.83
2023-11-20T01:54:11.586Z,0.80
2023-11-20T01:59:17.967Z,0.83
2023-11-20T02:04:22.988Z,0.80
2023-11-20T02:09:24.994Z,0.50
2023-11-20T02:14:27.074Z,0.70
2023-11-20T02:19:29.007Z,0.80
2023-11-20T02:24:31.097Z,0.80
2023-11-20T02:29:32.709Z,0.80
2023-11-20T02:34:34.356Z,0.80
2023-11-20T02:39:36.494Z,0.90
2023-11-20T02:44:38.583Z,1.10
2023-11-20T02:49:40.404Z,0.50
2023-11-20T02:54:42.654Z,0.70
2023-11-20T02:59:44.484Z,0.70
2023-11-20T03:04:46.393Z,0.80
2023-11-20T03:09:48.185Z,0.63
2023-11-20T03:14:50.796Z,0.57
2023-11-20T03:19:52.947Z,0.50
2023-11-20T03:24:54.560Z,0.63
2023-11-20T03:29:56.980Z,0.50
2023-11-20T03:34:58.609Z,0.67
2023-11-20T03:40:00.440Z,0.60
2023-11-20T03:45:02.195Z,0.70
2023-11-20T03:50:04.871Z,0.50
2023-11-20T03:55:07.051Z,0.70
2023-11-20T04:00:09.145Z,0.63
2023-11-20T04:05:10.731Z,0.60
2023-11-20T04:10:14.612Z,0.70
2023-11-20T04:15:16.482Z,0.80
2023-11-20T04:20:18.275Z,0.67
2023-11-20T04:25:20.961Z,0.50
2023-11-20T04:30:23.565Z,0.70
2023-11-20T04:35:25.876Z,0.57
2023-11-20T04:40:27.671Z,0.60
2023-11-20T04:45:29.304Z,0.70
2023-11-20T04:50:32.015Z,0.67
2023-11-20T04:55:33.625Z,0.63
2023-11-20T05:00:35.293Z,0.70
2023-11-20T05:05:36.913Z,0.80
2023-11-20T05:10:38.585Z,0.70
2023-11-20T05:15:40.317Z,0.70
2023-11-20T05:20:42.238Z,0.63
2023-11-20T05:25:43.858Z,0.67
2023-11-20T05:30:45.782Z,0.63
2023-11-20T05:35:47.531Z,0.70
2023-11-20T05:40:49.371Z,0.67
2023-11-20T05:45:51.107Z,0.60
2023-11-20T05:50:52.770Z,0.80
2023-11-20T05:55:54.364Z,0.93
2023-11-20T06:00:56.232Z,1.00
2023-11-20T06:05:57.822Z,0.83
2023-11-20T06:10:59.716Z,0.83
2023-11-20T06:16:01.433Z,0.97
2023-11-20T06:21:04.875Z,0.90
2023-11-20T06:26:06.537Z,1.10
2023-11-20T06:31:08.638Z,1.10
2023-11-20T06:36:11.318Z,1.00
2023-11-20T06:41:13.085Z,0.90
2023-11-20T06:46:24.665Z,1.10
2023-11-20T06:51:26.528Z,1.00
2023-11-20T06:56:28.505Z,0.90
2023-11-20T07:01:30.472Z,1.30
2023-11-20T07:06:32.150Z,1.10
2023-11-20T07:11:33.774Z,1.57
2023-11-20T07:16:41.675Z,1.10
2023-11-20T07:21:45.631Z,1.20
2023-11-20T07:26:47.374Z,1.40
2023-11-20T07:31:49.269Z,1.30
2023-11-20T07:36:55.324Z,1.27
2023-11-20T07:41:58.056Z,1.30
2023-11-20T07:47:01.223Z,1.30
2023-11-20T07:52:02.911Z,1.00
2023-11-20T07:57:06.120Z,1.30
2023-11-20T08:02:09.260Z,1.00
2023-11-20T08:07:13.089Z,1.37
2023-11-20T08:12:15.457Z,0.90
2023-11-20T08:17:19.105Z,1.00
2023-11-20T08:22:21.270Z,1.13
2023-11-20T08:27:23.007Z,1.07
2023-11-20T08:32:26.064Z,1.00
2023-11-20T08:37:28.243Z,1.10
2023-11-20T08:42:29.821Z,1.37
2023-11-20T08:47:32.040Z,1.20
2023-11-20T08:52:33.824Z,1.10
2023-11-20T08:57:37.054Z,1.13
2023-11-20T09:02:39.365Z,1.07
2023-11-20T09:07:42.299Z,1.47
2023-11-20T09:12:44.490Z,1.13
2023-11-20T09:17:46.298Z,1.50
2023-11-20T09:22:48.919Z,0.83
2023-11-20T09:27:50.588Z,1.47
2023-11-20T09:32:52.546Z,0.97
2023-11-20T09:37:55.099Z,1.50
2023-11-20T09:42:57.307Z,1.43
2023-11-20T09:47:59.401Z,1.10
2023-11-20T09:53:01.221Z,0.83
2023-11-20T09:58:03.254Z,1.17
2023-11-20T10:03:06.277Z,1.23
2023-11-20T10:08:08.618Z,0.60
2023-11-20T10:13:12.766Z,1.07
2023-11-20T10:18:14.487Z,0.80
2023-11-20T10:23:25.600Z,0.73
2023-11-20T10:28:27.312Z,0.93
2023-11-20T10:33:29.073Z,0.60
2023-11-20T10:38:34.665Z,0.80
2023-11-20T10:43:38.006Z,0.90
2023-11-20T10:48:40.338Z,0.90
2023-11-20T10:53:43.956Z,0.90
2023-11-20T10:58:46.441Z,0.70
2023-11-20T11:03:49.028Z,0.60
2023-11-20T11:08:51.141Z,0.80
2023-11-20T11:13:53.676Z,0.63
2023-11-20T11:19:16.435Z,0.90
2023-11-20T11:24:20.743Z,0.60
2023-11-20T11:29:26.245Z,0.50
2023-11-20T11:34:48.114Z,0.50
2023-11-20T11:39:59.527Z,0.53
2023-11-20T11:45:14.238Z,0.70
2023-11-20T11:50:17.733Z,0.30
2023-11-20T11:55:21.524Z,0.60
2023-11-20T12:00:23.323Z,0.70
2023-11-20T12:05:25.782Z,0.50
2023-11-20T12:10:41.693Z,0.40
2023-11-20T12:15:52.882Z,0.60
2023-11-20T12:20:55.883Z,0.50
2023-11-20T12:26:01.581Z,0.63
2023-11-20T12:31:08.876Z,0.70
2023-11-20T12:36:12.459Z,0.50
2023-11-20T12:41:14.475Z,0.50
2023-11-20T12:46:19.194Z,0.70
2023-11-20T12:51:21.212Z,0.60
2023-11-20T12:56:25.117Z,0.80
2023-11-20T13:01:26.900Z,0.57
2023-11-20T13:06:29.648Z,1.13
2023-11-20T13:11:31.200Z,0.67
2023-11-20T13:16:34.180Z,0.80
2023-11-20T13:21:36.103Z,0.70
2023-11-20T13:26:44.945Z,0.67
2023-11-20T13:31:47.240Z,1.10
2023-11-20T13:36:48.968Z,0.90
2023-11-20T13:41:52.012Z,0.67
2023-11-20T13:46:53.804Z,0.80
2023-11-20T13:51:56.750Z,0.80
2023-11-20T13:56:58.569Z,0.70
2023-11-20T14:02:01.269Z,0.87
2023-11-20T14:07:03.280Z,0.70
2023-11-20T14:12:06.261Z,1.00
2023-11-20T14:17:09.652Z,1.13
2023-11-20T14:22:12.125Z,0.90
2023-11-20T14:27:14.448Z,0.90
2023-11-20T14:32:16.005Z,1.40
2023-11-20T14:37:18.634Z,0.90
2023-11-20T14:42:20.213Z,0.90
2023-11-20T14:47:21.885Z,0.97
2023-11-20T14:52:23.513Z,1.33
2023-11-20T14:57:25.224Z,1.20
2023-11-20T15:02:27.347Z,1.20
2023-11-20T15:07:29.469Z,1.27
2023-11-20T15:12:32.629Z,1.17
2023-11-20T15:17:35.190Z,0.80
2023-11-20T15:22:39.789Z,1.00
2023-11-20T15:27:42.350Z,1.33
2023-11-20T15:32:44.794Z,1.40
2023-11-20T15:37:46.559Z,1.10
2023-11-20T15:42:48.199Z,1.43
2023-11-20T15:47:51.488Z,1.10
2023-11-20T15:52:53.247Z,1.30
2023-11-20T15:57:55.263Z,1.23
2023-11-20T16:02:57.164Z,1.60
2023-11-20T16:07:58.885Z,1.60
2023-11-20T16:13:02.247Z,1.67
2023-11-20T16:18:04.158Z,1.50
2023-11-20T16:23:07.205Z,1.43
2023-11-20T16:28:09.087Z,1.67
2023-11-20T16:33:10.914Z,1.47
2023-11-20T16:38:12.617Z,1.10
2023-11-20T16:43:15.541Z,1.33
2023-11-20T16:48:17.194Z,1.60
2023-11-20T16:53:18.866Z,1.07
2023-11-20T16:58:20.549Z,1.20
2023-11-20T17:03:25.270Z,1.33
2023-11-20T17:08:27.027Z,1.30
2023-11-20T17:13:29.048Z,1.80
2023-11-20T17:18:30.755Z,1.97
2023-11-20T17:23:33.475Z,1.67
2023-11-20T17:28:35.806Z,1.80
2023-11-20T17:33:37.678Z,1.60
2023-11-20T17:38:39.316Z,1.83
2023-11-20T17:43:40.970Z,1.70
2023-11-20T17:48:42.622Z,1.60
2023-11-20T17:53:44.320Z,1.60
2023-11-20T17:58:47.000Z,1.43
2023-11-20T18:03:48.678Z,2.40
2023-11-20T18:08:50.935Z,2.53
2023-11-20T18:13:54.022Z,2.10
2023-11-20T18:18:56.559Z,2.00
2023-11-20T18:23:58.277Z,2.40
2023-11-20T18:29:02.379Z,1.80
2023-11-20T18:34:05.027Z,1.27
2023-11-20T18:39:06.790Z,1.77
2023-11-20T18:44:08.336Z,1.53
2023-11-20T18:49:10.740Z,1.00
2023-11-20T18:54:12.702Z,1.60
2023-11-20T18:59:14.599Z,1.90
2023-11-20T19:04:16.442Z,1.70
2023-11-20T19:09:18.348Z,1.90
2023-11-20T19:14:22.527Z,1.90
2023-11-20T19:19:24.602Z,2.10
2023-11-20T19:24:27.220Z,1.70
2023-11-20T19:29:29.036Z,2.00
2023-11-20T19:34:30.708Z,1.77
2023-11-20T19:39:32.343Z,2.00
2023-11-20T19:44:33.929Z,2.27
2023-11-20T19:49:35.634Z,2.00
2023-11-20T19:54:37.304Z,1.67
2023-11-20T19:59:39.018Z,1.90
2023-11-20T20:04:41.330Z,1.60
2023-11-20T20:09:43.049Z,1.80
2023-11-20T20:14:45.162Z,2.03
2023-11-20T20:19:49.305Z,2.10
2023-11-20T20:24:53.671Z,2.40
2023-11-20T20:29:56.578Z,2.50
2023-11-20T20:34:58.498Z,2.60
2023-11-20T20:40:00.353Z,2.77
2023-11-20T20:45:01.994Z,2.60
2023-11-20T20:50:04.273Z,2.30
2023-11-20T20:55:08.194Z,2.00
2023-11-20T21:00:11.333Z,1.80
2023-11-20T21:05:15.621Z,1.70
2023-11-20T21:10:17.978Z,2.20
2023-11-20T21:15:19.708Z,1.93
2023-11-20T21:20:21.907Z,1.90
2023-11-20T21:25:24.673Z,2.37
2023-11-20T21:30:26.661Z,2.13
2023-11-20T21:35:40.706Z,2.17
2023-11-20T21:40:52.270Z,2.03
2023-11-20T21:45:54.258Z,2.30
2023-11-20T21:50:56.458Z,2.40
2023-11-20T21:55:58.057Z,2.37
2023-11-20T22:00:59.949Z,2.60
2023-11-20T22:06:01.928Z,2.23
2023-11-20T22:11:04.466Z,2.60
2023-11-20T22:16:06.896Z,2.67
2023-11-20T22:21:09.012Z,2.60
2023-11-20T22:26:10.652Z,3.07
2023-11-20T22:31:13.911Z,3.10
2023-11-20T22:36:15.894Z,2.80
2023-11-20T22:41:17.652Z,2.40
2023-11-20T22:46:20.185Z,2.50
2023-11-20T22:51:21.915Z,2.47
2023-11-20T22:56:23.803Z,2.50
2023-11-20T23:01:27.087Z,2.80
2023-11-20T23:06:29.410Z,2.30
2023-11-20T23:11:31.147Z,2.33
2023-11-20T23:16:33.105Z,2.80
2023-11-20T23:21:34.858Z,2.77
2023-11-20T23:26:37.634Z,2.47
2023-11-20T23:31:39.591Z,2.37
2023-11-20T23:36:41.257Z,2.30
2023-11-20T23:41:42.995Z,2.37
2023-11-20T23:46:44.800Z,1.90
2023-11-20T23:51:46.884Z,2.43
2023-11-20T23:56:49.392Z,2.50
